Terminal Aerodrome Forecast
Issued by NWS Mobile, AL

Current Version | Previous Version | Text Only | Print | Product List | Glossary On
Versions: 1 2 3 4 5 6 7 8 9 10 11 12 13 14 15 16
000
FTUS44 KMOB 231744 CCA
TAFPNS
TAF COR
KPNS 231744Z 2318/2418 23015G25KT P6SM VCTS BKN023CB OVC035
     FM231900 23015G25KT 5SM TSRA BR BKN015CB
     FM240000 24011KT P6SM VCSH SCT015 OVC050
     FM240800 25008KT 5SM -TSRA BR OVC025CB
     FM241500 29008KT P6SM VCSH OVC025=

USA.gov is the U.S. government's official web portal to all federal, state and local government web resources and services.